Dickinson, ND

4:18 PM MST on December 02, 2016 (GMT -0700)
Southview | | Change Station

Elev 2434 ft 46.86 °N, 102.78 °W | Updated 24 seconds ago

Overcast
Overcast
30.1 °F
Feels Like 30 °F
N
0.0
Wind Variable Wind from SW

Today
High -- | Low -- °F
--% Chance of Precip.
Yesterday
High -- | Low -- °F
Precip. -- in
Pressure 30.23 in
Visibility 10.0 miles
Clouds Scattered Clouds 1900 ft
Overcast 3300 ft
Windchill 30 °F
Dew Point 25 °F
Humidity 83%
Rainfall 0.00 in
Snow Depth Not available.
7:17 AM 4:03 PM
Waxing Crescent, 11% visible
METAR KDIK 022256Z AUTO 17005KT 10SM SCT019 OVC033 M02/M04 A3013 RMK AO2 SLP236 T10171039
Pressure 30.23 in
Visibility 10.0 miles
Clouds Scattered Clouds 1900 ft
Overcast 3300 ft
Windchill 30 °F
Dew Point 25 °F
Humidity 83%
Rainfall 0.00 in
Snow Depth Not available.
7:17 AM 4:03 PM
Waxing Crescent, 11% visible
METAR KDIK 022256Z AUTO 17005KT 10SM SCT019 OVC033 M02/M04 A3013 RMK AO2 SLP236 T10171039

10-Day Weather Forecast

Almanac

Astronomy

Dec. 02, 2016 Rise Set
Actual Time
Civil Twilight
Nautical Twilight
Astronomical Twilight
Moon
Length of Visible Light
Length of Day
Tomorrow will be .
, % of the Moon is Illuminated

Today's Extremes

State Highs State Lows

Community

WunderPhotos

Upload Photos

1,955,377 photos uploaded!

WunderBlog® & News

Nearby

Air Quality

  Air Quality AQ Index Pollutant
Not available.

Snow Depth

Station Depth Elevation

Earthquake Activity

City Distance Mag. Time & Date
Minimum magnitude displayed is 2.5.

Coastal Water Temperatures

Place Temperature

Stations

Nearby Weather Stations

Station Location Temp. Windchill Dew Point Humidity Wind Precip. Elev Updated Type
                   

Watches & Warnings

There are currently no watches in effect.